createdAt,value
2022-10-23T00:01:27.062Z,1.93
2022-10-23T00:04:28.495Z,2.10
2022-10-23T00:10:32.216Z,2.10
2022-10-23T00:13:33.682Z,2.03
2022-10-23T00:16:35.678Z,1.90
2022-10-23T00:19:37.076Z,2.13
2022-10-23T00:22:38.617Z,1.90
2022-10-23T00:25:40.102Z,2.10
2022-10-23T00:28:46.763Z,2.10
2022-10-23T00:31:48.155Z,2.10
2022-10-23T00:34:51.982Z,2.40
2022-10-23T00:37:53.390Z,1.80
2022-10-23T00:40:54.824Z,2.23
2022-10-23T00:43:56.257Z,1.80
2022-10-23T00:46:59.096Z,1.70
2022-10-23T00:50:01.696Z,1.90
2022-10-23T00:53:04.890Z,1.90
2022-10-23T00:56:06.684Z,1.87
2022-10-23T00:59:08.122Z,2.10
2022-10-23T01:02:09.924Z,2.20
2022-10-23T01:05:11.822Z,1.87
2022-10-23T01:08:26.582Z,2.00
2022-10-23T01:11:37.854Z,1.90
2022-10-23T01:14:54.821Z,1.93
2022-10-23T01:17:56.417Z,1.93
2022-10-23T01:21:05.450Z,2.00
2022-10-23T01:24:19.478Z,2.10
2022-10-23T01:27:26.413Z,2.13
2022-10-23T01:30:29.757Z,1.90
2022-10-23T01:33:41.241Z,2.03
2022-10-23T01:36:47.425Z,2.20
2022-10-23T01:39:54.801Z,2.20
2022-10-23T01:43:01.327Z,2.00
2022-10-23T01:46:08.414Z,2.13
2022-10-23T01:49:14.817Z,2.10
2022-10-23T01:52:18.299Z,1.90
2022-10-23T01:55:23.842Z,2.00
2022-10-23T01:58:28.011Z,2.20
2022-10-23T02:01:30.990Z,2.00
2022-10-23T02:04:38.662Z,1.83
2022-10-23T02:07:40.651Z,2.00
2022-10-23T02:11:09.629Z,2.07
2022-10-23T02:14:24.420Z,2.23
2022-10-23T02:18:00.407Z,2.00
2022-10-23T02:21:10.126Z,2.23
2022-10-23T02:24:15.594Z,2.13
2022-10-23T02:27:30.302Z,2.23
2022-10-23T02:30:33.384Z,1.83
2022-10-23T02:33:45.836Z,2.10
2022-10-23T02:36:47.273Z,2.10
2022-10-23T02:39:49.161Z,2.00
2022-10-23T02:43:03.728Z,1.90
2022-10-23T02:46:18.354Z,1.90
2022-10-23T02:49:30.978Z,2.07
2022-10-23T02:52:46.003Z,2.00
2022-10-23T02:56:02.191Z,1.83
2022-10-23T02:59:13.698Z,1.77
2022-10-23T03:02:23.267Z,1.87
2022-10-23T03:05:29.501Z,1.80
2022-10-23T03:08:41.813Z,1.97
2022-10-23T03:11:43.284Z,1.90
2022-10-23T03:14:44.775Z,1.73
2022-10-23T03:17:46.180Z,1.67
2022-10-23T03:20:49.782Z,1.70
2022-10-23T03:23:51.202Z,1.60
2022-10-23T03:26:57.872Z,1.97
2022-10-23T03:30:06.505Z,1.50
2022-10-23T03:33:09.917Z,1.90
2022-10-23T03:36:11.346Z,1.70
2022-10-23T03:39:12.804Z,2.10
2022-10-23T03:42:14.341Z,2.10
2022-10-23T03:45:15.811Z,1.90
2022-10-23T03:48:17.400Z,1.50
2022-10-23T03:51:19.425Z,1.87
2022-10-23T03:54:26.292Z,1.80
2022-10-23T03:57:27.699Z,1.70
2022-10-23T04:00:29.266Z,1.83
2022-10-23T04:03:30.758Z,1.93
2022-10-23T04:06:32.220Z,1.70
2022-10-23T04:09:33.880Z,1.80
2022-10-23T04:12:38.077Z,2.00
2022-10-23T04:15:40.834Z,2.20
2022-10-23T04:18:42.311Z,2.10
2022-10-23T04:21:44.850Z,2.00
2022-10-23T04:24:47.969Z,2.53
2022-10-23T04:27:52.847Z,2.30
2022-10-23T04:30:54.870Z,2.17
2022-10-23T04:33:56.365Z,1.90
2022-10-23T04:37:05.173Z,1.60
2022-10-23T04:40:07.409Z,1.77
2022-10-23T04:43:10.887Z,2.07
2022-10-23T04:46:14.516Z,2.00
2022-10-23T04:49:15.946Z,1.83
2022-10-23T04:52:23.730Z,1.67
2022-10-23T04:55:59.450Z,2.30
2022-10-23T04:59:10.280Z,1.63
2022-10-23T05:02:13.277Z,1.93
2022-10-23T05:05:15.932Z,2.10
2022-10-23T05:08:43.726Z,1.53
2022-10-23T05:11:51.165Z,1.70
2022-10-23T05:14:53.333Z,1.63
2022-10-23T05:17:59.922Z,1.80
2022-10-23T05:21:13.866Z,1.90
2022-10-23T05:24:15.351Z,1.77
2022-10-23T05:27:28.060Z,1.60
2022-10-23T05:30:32.972Z,1.77
2022-10-23T05:33:37.149Z,1.93
2022-10-23T05:36:39.595Z,1.63
2022-10-23T05:39:42.028Z,1.60
2022-10-23T05:42:48.998Z,1.90
2022-10-23T05:45:55.148Z,1.80
2022-10-23T05:49:08.490Z,1.30
2022-10-23T05:52:38.901Z,1.63
2022-10-23T05:55:49.863Z,1.70
2022-10-23T05:59:10.321Z,1.90
2022-10-23T06:02:27.001Z,1.60
2022-10-23T06:05:35.461Z,1.67
2022-10-23T06:08:55.243Z,1.60
2022-10-23T06:11:57.181Z,1.60
2022-10-23T06:14:58.856Z,1.30
2022-10-23T06:18:12.199Z,1.60
2022-10-23T06:21:26.000Z,1.70
2022-10-23T06:24:27.868Z,1.73
2022-10-23T06:27:34.944Z,1.90
2022-10-23T06:30:39.585Z,1.60
2022-10-23T06:33:41.656Z,1.70
2022-10-23T06:36:44.885Z,1.60
2022-10-23T06:40:05.918Z,1.90
2022-10-23T06:43:27.298Z,1.63
2022-10-23T06:46:51.318Z,1.40
2022-10-23T06:50:14.546Z,1.40
2022-10-23T06:53:19.420Z,1.77
2022-10-23T06:56:29.087Z,1.63
2022-10-23T06:59:30.658Z,1.80
2022-10-23T07:02:32.052Z,1.40
2022-10-23T07:05:33.562Z,1.47
2022-10-23T07:08:36.054Z,2.20
2022-10-23T07:11:44.210Z,1.70
2022-10-23T07:14:45.896Z,2.03
2022-10-23T07:17:47.343Z,1.60
2022-10-23T07:20:51.002Z,1.50
2022-10-23T07:23:52.473Z,1.60
2022-10-23T07:26:55.795Z,2.03
2022-10-23T07:30:00.146Z,1.60
2022-10-23T07:33:05.548Z,1.60
2022-10-23T07:36:29.568Z,1.40
2022-10-23T07:39:30.986Z,1.60
2022-10-23T07:42:32.563Z,1.70
2022-10-23T07:45:34.022Z,1.83
2022-10-23T07:48:42.334Z,1.50
2022-10-23T07:51:47.504Z,1.50
2022-10-23T07:54:52.329Z,1.50
2022-10-23T07:57:55.096Z,1.50
2022-10-23T08:01:16.431Z,1.30
2022-10-23T08:04:19.416Z,1.37
2022-10-23T08:07:43.680Z,1.50
2022-10-23T08:10:49.742Z,1.27
2022-10-23T08:13:58.447Z,1.23
2022-10-23T08:17:04.696Z,1.40
2022-10-23T08:20:26.405Z,1.50
2022-10-23T08:23:28.749Z,1.80
2022-10-23T08:26:30.511Z,1.50
2022-10-23T08:29:32.002Z,1.17
2022-10-23T08:32:33.945Z,1.23
2022-10-23T08:35:38.273Z,1.20
2022-10-23T08:38:40.805Z,1.30
2022-10-23T08:41:51.112Z,1.30
2022-10-23T08:45:02.136Z,1.30
2022-10-23T08:48:18.482Z,1.47
2022-10-23T08:51:49.052Z,1.60
2022-10-23T08:55:15.822Z,1.43
2022-10-23T08:58:23.681Z,1.23
2022-10-23T09:01:38.524Z,1.30
2022-10-23T09:04:43.053Z,1.40
2022-10-23T09:07:54.695Z,1.27
2022-10-23T09:11:01.796Z,1.90
2022-10-23T09:14:34.649Z,1.60
2022-10-23T09:17:42.208Z,1.33
2022-10-23T09:20:47.208Z,1.30
2022-10-23T09:23:48.660Z,1.40
2022-10-23T09:26:53.015Z,1.30
2022-10-23T09:29:55.864Z,1.50
2022-10-23T09:32:57.847Z,1.47
2022-10-23T09:36:06.450Z,1.80
2022-10-23T09:39:22.492Z,1.50
2022-10-23T09:42:25.777Z,1.53
2022-10-23T09:45:34.568Z,1.50
2022-10-23T09:48:42.126Z,1.50
2022-10-23T09:51:52.690Z,1.37
2022-10-23T09:54:58.145Z,1.23
2022-10-23T09:57:59.940Z,1.33
2022-10-23T10:01:02.268Z,1.40
2022-10-23T10:04:38.468Z,1.80
2022-10-23T10:07:39.957Z,1.53
2022-10-23T10:10:47.666Z,1.30
2022-10-23T10:14:35.202Z,1.60
2022-10-23T10:17:47.518Z,1.57
2022-10-23T10:21:02.488Z,1.40
2022-10-23T10:24:49.337Z,1.70
2022-10-23T10:28:21.509Z,1.67
2022-10-23T10:31:44.267Z,1.47
2022-10-23T10:34:59.382Z,1.40
2022-10-23T10:38:12.092Z,1.43
2022-10-23T10:41:22.562Z,1.30
2022-10-23T10:44:40.597Z,1.37
2022-10-23T10:48:09.980Z,1.60
2022-10-23T10:51:34.331Z,1.30
2022-10-23T10:54:54.225Z,1.50
2022-10-23T10:58:02.626Z,1.50
2022-10-23T11:01:14.378Z,1.63
2022-10-23T11:04:31.717Z,1.40
2022-10-23T11:07:42.971Z,1.80
2022-10-23T11:10:49.325Z,1.50
2022-10-23T11:13:53.150Z,1.30
2022-10-23T11:17:16.812Z,1.40
2022-10-23T11:20:33.404Z,1.37
2022-10-23T11:23:56.954Z,1.50
2022-10-23T11:27:26.460Z,1.20
2022-10-23T11:31:11.885Z,1.33
2022-10-23T11:34:41.670Z,1.20
2022-10-23T11:37:43.635Z,1.00
2022-10-23T11:44:01.389Z,1.10
2022-10-23T11:47:24.872Z,1.10
2022-10-23T11:50:49.393Z,1.30
2022-10-23T11:53:50.930Z,1.53
2022-10-23T11:57:11.648Z,1.30
2022-10-23T12:00:23.094Z,1.50
2022-10-23T12:03:30.419Z,1.13
2022-10-23T12:06:52.416Z,1.30
2022-10-23T12:10:06.391Z,1.20
2022-10-23T12:13:36.448Z,0.90
2022-10-23T12:16:38.224Z,1.30
2022-10-23T12:19:55.767Z,1.50
2022-10-23T12:23:15.406Z,1.33
2022-10-23T12:26:20.580Z,1.30
2022-10-23T12:29:48.450Z,1.30
2022-10-23T12:33:08.402Z,1.30
2022-10-23T12:36:42.757Z,1.20
2022-10-23T12:39:51.501Z,1.20
2022-10-23T12:42:55.651Z,1.37
2022-10-23T12:46:03.778Z,1.60
2022-10-23T12:49:17.049Z,1.60
2022-10-23T12:52:20.956Z,1.40
2022-10-23T12:55:24.425Z,1.13
2022-10-23T12:58:31.958Z,1.10
2022-10-23T13:01:39.369Z,1.20
2022-10-23T13:04:43.174Z,1.23
2022-10-23T13:07:47.232Z,1.30
2022-10-23T13:10:51.413Z,1.20
2022-10-23T13:13:54.356Z,1.30
2022-10-23T13:17:04.502Z,1.23
2022-10-23T13:20:17.814Z,1.30
2022-10-23T13:23:28.010Z,0.90
2022-10-23T13:26:44.867Z,1.33
2022-10-23T13:29:46.255Z,1.10
2022-10-23T13:32:47.658Z,1.10
2022-10-23T13:36:00.641Z,1.23
2022-10-23T13:39:11.248Z,1.50
2022-10-23T13:42:14.498Z,0.97
2022-10-23T13:45:22.724Z,1.10
2022-10-23T13:48:24.346Z,1.30
2022-10-23T13:51:28.477Z,1.10
2022-10-23T13:54:30.512Z,1.30
2022-10-23T13:57:31.908Z,1.57
2022-10-23T14:00:33.331Z,1.20
2022-10-23T14:03:35.401Z,1.13
2022-10-23T14:06:38.104Z,1.10
2022-10-23T14:09:39.492Z,0.90
2022-10-23T14:12:42.127Z,1.20
2022-10-23T14:15:43.850Z,1.20
2022-10-23T14:18:45.353Z,1.30
2022-10-23T14:21:46.726Z,1.10
2022-10-23T14:24:48.104Z,1.17
2022-10-23T14:27:49.645Z,1.30
2022-10-23T14:30:51.085Z,1.10
2022-10-23T14:33:55.940Z,1.50
2022-10-23T14:37:08.060Z,1.50
2022-10-23T14:40:10.607Z,1.30
2022-10-23T14:43:12.024Z,1.53
2022-10-23T14:46:16.178Z,1.30
2022-10-23T14:49:17.607Z,1.50
2022-10-23T14:52:19.110Z,1.40
2022-10-23T14:55:20.628Z,1.40
2022-10-23T14:58:24.149Z,1.40
2022-10-23T15:01:25.616Z,1.53
2022-10-23T15:04:27.174Z,1.40
2022-10-23T15:07:28.557Z,1.67
2022-10-23T15:10:29.967Z,1.40
2022-10-23T15:13:31.469Z,1.63
2022-10-23T15:16:33.219Z,1.30
2022-10-23T15:19:34.628Z,1.53
2022-10-23T15:22:36.125Z,1.60
2022-10-23T15:25:40.484Z,1.43
2022-10-23T15:28:41.873Z,1.60
2022-10-23T15:31:47.275Z,1.67
2022-10-23T15:34:49.645Z,2.00
2022-10-23T15:37:51.128Z,1.70
2022-10-23T15:40:58.545Z,1.77
2022-10-23T15:44:02.043Z,1.70
2022-10-23T15:47:03.602Z,1.43
2022-10-23T15:50:05.429Z,1.53
2022-10-23T15:53:06.913Z,1.73
2022-10-23T15:56:08.293Z,1.57
2022-10-23T15:59:09.698Z,1.60
2022-10-23T16:02:12.044Z,1.53
2022-10-23T16:05:13.542Z,2.07
2022-10-23T16:08:14.955Z,1.80
2022-10-23T16:11:22.396Z,1.60
2022-10-23T16:14:23.788Z,1.90
2022-10-23T16:17:25.195Z,2.10
2022-10-23T16:20:26.613Z,1.83
2022-10-23T16:23:28.318Z,2.03
2022-10-23T16:26:30.325Z,2.40
2022-10-23T16:29:31.802Z,1.63
2022-10-23T16:32:33.308Z,2.10
2022-10-23T16:35:36.608Z,1.93
2022-10-23T16:38:46.547Z,1.70
2022-10-23T16:41:48.033Z,1.93
2022-10-23T16:44:52.461Z,2.10
2022-10-23T16:47:53.902Z,1.93
2022-10-23T16:50:55.363Z,2.30
2022-10-23T16:53:57.881Z,3.00
2022-10-23T16:56:59.356Z,4.50
2022-10-23T17:00:00.737Z,3.40
2022-10-23T17:03:03.286Z,2.50
2022-10-23T17:06:08.850Z,1.90
2022-10-23T17:09:12.438Z,2.00
2022-10-23T17:12:14.794Z,2.13
2022-10-23T17:15:16.640Z,2.17
2022-10-23T17:18:18.198Z,2.13
2022-10-23T17:21:21.232Z,2.40
2022-10-23T17:24:23.516Z,2.23
2022-10-23T17:27:24.910Z,2.20
2022-10-23T17:30:26.452Z,2.17
2022-10-23T17:33:27.969Z,2.30
2022-10-23T17:36:31.408Z,2.07
2022-10-23T17:39:32.834Z,3.80
2022-10-23T17:42:34.254Z,2.10
2022-10-23T17:45:36.432Z,2.30
2022-10-23T17:48:47.486Z,1.90
2022-10-23T17:51:52.628Z,2.03
2022-10-23T17:54:54.021Z,2.30
2022-10-23T17:57:55.469Z,2.17
2022-10-23T18:00:57.052Z,2.23
2022-10-23T18:04:03.963Z,2.50
2022-10-23T18:07:05.428Z,2.20
2022-10-23T18:10:07.328Z,2.60
2022-10-23T18:13:08.793Z,2.40
2022-10-23T18:16:11.585Z,2.30
2022-10-23T18:19:18.056Z,2.40
2022-10-23T18:25:25.968Z,3.20
2022-10-23T18:28:28.586Z,2.57
2022-10-23T18:31:30.290Z,2.30
2022-10-23T18:34:31.729Z,4.63
2022-10-23T18:37:34.729Z,3.97
2022-10-23T18:40:41.268Z,3.60
2022-10-23T18:43:44.734Z,3.30
2022-10-23T18:46:47.930Z,3.47
2022-10-23T18:49:49.372Z,2.90
2022-10-23T18:52:50.775Z,3.37
2022-10-23T18:55:52.311Z,3.07
2022-10-23T18:58:56.163Z,3.00
2022-10-23T19:01:57.702Z,2.90
2022-10-23T19:04:59.289Z,3.37
2022-10-23T19:08:00.782Z,3.00
2022-10-23T19:11:03.356Z,2.97
2022-10-23T19:14:05.542Z,2.93
2022-10-23T19:17:17.120Z,2.70
2022-10-23T19:20:20.601Z,3.17
2022-10-23T19:23:22.296Z,3.00
2022-10-23T19:26:23.686Z,3.10
2022-10-23T19:29:26.573Z,2.90
2022-10-23T19:32:28.075Z,3.00
2022-10-23T19:35:29.469Z,3.13
2022-10-23T19:38:31.418Z,2.80
2022-10-23T19:41:32.853Z,2.93
2022-10-23T19:44:34.716Z,2.80
2022-10-23T19:47:36.571Z,2.80
2022-10-23T19:50:38.055Z,3.10
2022-10-23T19:53:40.787Z,2.67
2022-10-23T19:56:42.405Z,2.90
2022-10-23T19:59:48.452Z,3.60
2022-10-23T20:02:52.760Z,3.90
2022-10-23T20:05:56.614Z,3.33
2022-10-23T20:08:57.998Z,3.10
2022-10-23T20:12:00.466Z,2.63
2022-10-23T20:15:01.931Z,2.37
2022-10-23T20:18:04.187Z,2.83
2022-10-23T20:21:05.744Z,2.80
2022-10-23T20:24:08.309Z,3.80
2022-10-23T20:27:10.786Z,4.00
2022-10-23T20:30:12.626Z,3.33
2022-10-23T20:33:14.024Z,3.17
2022-10-23T20:36:28.053Z,2.63
2022-10-23T20:39:29.900Z,2.87
2022-10-23T20:42:31.327Z,2.77
2022-10-23T20:45:33.949Z,2.53
2022-10-23T20:48:40.120Z,2.37
2022-10-23T20:51:42.112Z,2.40
2022-10-23T20:54:43.668Z,2.30
2022-10-23T20:57:45.429Z,2.43
2022-10-23T21:00:47.567Z,2.90
2022-10-23T21:03:51.163Z,2.97
2022-10-23T21:07:10.705Z,2.80
2022-10-23T21:10:12.647Z,3.37
2022-10-23T21:13:14.114Z,2.80
2022-10-23T21:16:27.617Z,3.10
2022-10-23T21:19:30.015Z,3.27
2022-10-23T21:22:31.426Z,2.90
2022-10-23T21:25:32.832Z,3.00
2022-10-23T21:28:34.795Z,3.17
2022-10-23T21:31:36.188Z,2.90
2022-10-23T21:34:37.686Z,2.90
2022-10-23T21:37:39.070Z,2.80
2022-10-23T21:40:40.522Z,2.57
2022-10-23T21:43:42.485Z,3.00
2022-10-23T21:46:44.110Z,3.47
2022-10-23T21:49:45.529Z,2.80
2022-10-23T21:52:51.710Z,3.20
2022-10-23T21:55:54.083Z,3.07
2022-10-23T21:58:56.577Z,3.10
2022-10-23T22:01:58.197Z,4.20
2022-10-23T22:04:59.676Z,3.20
2022-10-23T22:08:01.082Z,3.33
2022-10-23T22:11:05.366Z,2.97
2022-10-23T22:14:07.439Z,2.80
2022-10-23T22:17:08.926Z,3.50
2022-10-23T22:20:10.578Z,3.60
2022-10-23T22:23:11.952Z,3.03
2022-10-23T22:26:32.965Z,4.80
2022-10-23T22:29:35.283Z,4.60
2022-10-23T22:32:36.652Z,4.63
2022-10-23T22:35:38.061Z,3.80
2022-10-23T22:38:39.816Z,3.80
2022-10-23T22:41:43.113Z,3.43
2022-10-23T22:44:44.527Z,2.87
2022-10-23T22:47:46.074Z,3.20
2022-10-23T22:50:47.512Z,3.07
2022-10-23T22:53:48.964Z,3.17
2022-10-23T22:56:50.356Z,2.70
2022-10-23T22:59:51.728Z,2.70
2022-10-23T23:02:53.889Z,2.87
2022-10-23T23:05:55.329Z,3.10
2022-10-23T23:08:56.828Z,3.10
2022-10-23T23:11:58.276Z,3.10
2022-10-23T23:15:00.212Z,2.77
2022-10-23T23:18:01.591Z,2.77
2022-10-23T23:21:04.728Z,2.83
2022-10-23T23:24:06.229Z,2.90
2022-10-23T23:27:07.695Z,2.80
2022-10-23T23:30:09.660Z,2.50
2022-10-23T23:33:11.956Z,2.30
2022-10-23T23:36:16.420Z,2.70
2022-10-23T23:39:17.910Z,3.23
2022-10-23T23:42:19.347Z,3.20
2022-10-23T23:45:20.743Z,3.43
2022-10-23T23:48:22.352Z,3.37
2022-10-23T23:51:25.181Z,3.10
2022-10-23T23:54:26.644Z,3.67
2022-10-23T23:57:28.109Z,3.00
